Time;durP1;ratioP1;P1;durP2;ratioP2;P2;SDS_P1;SDS_P2;PMS_P1;PMS_P2;Temp;Humidity;BMP_temperature;BMP_pressure;BME280_temperature;BME280_humidity;BME280_pressure;Samples;Min_cycle;Max_cycle;Signal;HPM_P1;HPM_P2
2021/01/13 00:00:09;;;;;;;6.78;5.97;;;;;;;-0.37;100.00;95772.22;1046209;28;20084;-88
2021/01/13 00:00:40;;;;;;;6.10;5.50;;;;;;;-0.38;100.00;95783.66;1046426;28;20451;-87
2021/01/13 00:01:10;;;;;;;7.53;6.70;;;;;;;-0.39;100.00;95779.44;1041564;28;20088;-91
2021/01/13 00:01:41;;;;;;;8.68;6.70;;;;;;;-0.39;100.00;95771.63;1042390;28;20029;-89
2021/01/13 00:02:11;;;;;;;8.73;6.68;;;;;;;-0.46;100.00;95776.78;1042054;28;20047;-85
2021/01/13 00:02:41;;;;;;;7.20;6.50;;;;;;;-0.44;100.00;95777.41;1042077;28;20029;-86
2021/01/13 00:03:12;;;;;;;9.40;6.65;;;;;;;-0.46;100.00;95779.41;1045983;28;20021;-86
2021/01/13 00:03:54;;;;;;;7.00;6.30;;;;;;;-0.45;100.00;95783.59;1043952;28;20040;-86
2021/01/13 00:04:24;;;;;;;7.10;6.40;;;;;;;-0.43;100.00;95783.41;1040760;28;20040;-87
2021/01/13 00:04:57;;;;;;;8.90;6.63;;;;;;;-0.44;100.00;95781.81;1040596;28;20033;-87
2021/01/13 00:05:28;;;;;;;9.13;6.00;;;;;;;-0.43;100.00;95779.00;1040838;28;20028;-86
2021/01/13 00:05:58;;;;;;;8.20;6.20;;;;;;;-0.48;100.00;95772.75;1036284;28;20506;-86
2021/01/13 00:06:29;;;;;;;6.97;5.78;;;;;;;-0.46;100.00;95778.59;1036446;28;20026;-85
2021/01/13 00:06:59;;;;;;;8.90;6.55;;;;;;;-0.44;100.00;95782.59;1036406;28;20018;-87
2021/01/13 00:07:30;;;;;;;6.57;5.80;;;;;;;-0.44;100.00;95787.00;1036308;28;20041;-85
2021/01/13 00:08:00;;;;;;;6.85;6.07;;;;;;;-0.41;100.00;95784.03;1043967;28;20068;-85
2021/01/13 00:08:31;;;;;;;7.88;5.78;;;;;;;-0.41;100.00;95782.22;1044834;28;20389;-88
2021/01/13 00:09:01;;;;;;;9.88;5.97;;;;;;;-0.42;100.00;95787.63;1040389;28;20036;-86
2021/01/13 00:09:31;;;;;;;7.97;6.13;;;;;;;-0.43;100.00;95786.81;1040300;28;20481;-86
2021/01/13 00:10:03;;;;;;;10.32;5.75;;;;;;;-0.47;100.00;95790.81;1040419;28;20459;-86
2021/01/13 00:10:36;;;;;;;6.30;5.70;;;;;;;-0.47;100.00;95790.00;1036595;28;20038;-86
2021/01/13 00:11:07;;;;;;;6.97;6.18;;;;;;;-0.49;100.00;95786.75;1040386;28;20025;-86
2021/01/13 00:11:38;;;;;;;7.45;6.70;;;;;;;-0.52;100.00;95789.75;1039973;28;20021;-87
2021/01/13 00:12:11;;;;;;;8.68;6.55;;;;;;;-0.53;100.00;95788.94;1040881;28;20021;-85
2021/01/13 00:12:42;;;;;;;7.10;6.28;;;;;;;-0.55;100.00;95784.91;1040556;28;20021;-85
2021/01/13 00:13:14;;;;;;;7.70;6.53;;;;;;;-0.52;100.00;95789.75;1040667;28;20026;-86
2021/01/13 00:13:45;;;;;;;7.35;6.50;;;;;;;-0.53;100.00;95788.13;1040470;28;20540;-84
2021/01/13 00:14:15;;;;;;;9.75;7.47;;;;;;;-0.56;100.00;95788.50;1040680;28;20076;-86
2021/01/13 00:14:45;;;;;;;8.43;6.95;;;;;;;-0.58;100.00;95793.09;1036019;28;20022;-85
2021/01/13 00:15:19;;;;;;;8.90;7.55;;;;;;;-0.63;100.00;95791.03;1036209;28;20026;-84
2021/01/13 00:15:52;;;;;;;9.40;6.40;;;;;;;-0.62;100.00;95790.84;1032087;28;20038;-87
2021/01/13 00:16:23;;;;;;;9.52;7.20;;;;;;;-0.62;100.00;95785.66;1028626;28;20027;-85
2021/01/13 00:16:53;;;;;;;11.63;7.45;;;;;;;-0.60;100.00;95788.88;1027878;28;20035;-85
2021/01/13 00:17:24;;;;;;;8.77;7.75;;;;;;;-0.62;100.00;95790.03;1028482;28;20038;-85
2021/01/13 00:17:54;;;;;;;9.93;8.35;;;;;;;-0.67;100.00;95788.00;1034093;28;20026;-84
2021/01/13 00:18:25;;;;;;;11.57;7.38;;;;;;;-0.69;100.00;95794.41;1036254;28;20034;-86
2021/01/13 00:18:56;;;;;;;10.27;7.97;;;;;;;-0.67;100.00;95784.59;1040446;28;20064;-86
2021/01/13 00:19:26;;;;;;;10.73;8.93;;;;;;;-0.69;100.00;95781.41;1035983;28;20415;-85
2021/01/13 00:19:56;;;;;;;9.35;8.35;;;;;;;-0.72;100.00;95784.34;1036077;28;20030;-85
2021/01/13 00:20:30;;;;;;;10.45;8.30;;;;;;;-0.72;100.00;95789.56;1035799;28;20471;-85
2021/01/13 00:21:03;;;;;;;11.85;9.48;;;;;;;-0.76;100.00;95794.34;1036608;28;20398;-85
2021/01/13 00:21:33;;;;;;;10.02;8.77;;;;;;;-0.74;100.00;95781.94;1040609;28;20017;-84
2021/01/13 00:22:04;;;;;;;9.48;8.25;;;;;;;-0.71;100.00;95789.38;1040157;28;20037;-84
2021/01/13 00:22:39;;;;;;;9.38;8.30;;;;;;;-0.70;100.00;95793.59;1040393;28;20017;-84
2021/01/13 00:23:10;;;;;;;11.27;8.70;;;;;;;-0.70;100.00;95791.00;1040601;28;20094;-84
2021/01/13 00:23:46;;;;;;;12.63;9.15;;;;;;;-0.74;100.00;95792.34;1040337;28;20103;-86
2021/01/13 00:24:24;;;;;;;10.73;8.45;;;;;;;-0.73;100.00;95788.75;1041401;28;20026;-84
2021/01/13 00:24:54;;;;;;;9.82;7.93;;;;;;;-0.73;100.00;95788.75;1039982;28;20064;-86
2021/01/13 00:25:25;;;;;;;12.88;8.30;;;;;;;-0.72;100.00;95785.16;1039896;28;20032;-84
2021/01/13 00:25:55;;;;;;;10.80;8.68;;;;;;;-0.73;100.00;95783.53;1040041;28;20032;-86
2021/01/13 00:26:25;;;;;;;9.55;8.23;;;;;;;-0.75;100.00;95785.53;1040192;28;20033;-86
2021/01/13 00:26:57;;;;;;;10.00;8.13;;;;;;;-0.79;100.00;95784.31;1040283;28;20045;-86
2021/01/13 00:27:27;;;;;;;9.80;8.32;;;;;;;-0.83;100.00;95783.03;1040209;28;20021;-86
2021/01/13 00:27:58;;;;;;;12.23;8.38;;;;;;;-0.80;100.00;95782.69;1040226;28;20034;-86
2021/01/13 00:28:32;;;;;;;9.30;7.85;;;;;;;-0.81;100.00;95781.09;1040357;28;20029;-86
2021/01/13 00:29:07;;;;;;;8.98;8.07;;;;;;;-0.82;100.00;95781.28;1040573;28;20398;-86
2021/01/13 00:29:37;;;;;;;10.90;7.80;;;;;;;-0.83;100.00;95777.84;1044261;28;20017;-87
2021/01/13 00:30:09;;;;;;;8.23;7.32;;;;;;;-0.82;100.00;95779.47;1044551;28;20457;-87
2021/01/13 00:30:39;;;;;;;11.02;8.43;;;;;;;-0.83;100.00;95777.84;1040147;28;20021;-85
2021/01/13 00:31:12;;;;;;;10.10;7.15;;;;;;;-0.83;100.00;95782.22;1040409;28;20497;-87
2021/01/13 00:31:43;;;;;;;7.68;6.88;;;;;;;-0.83;100.00;95792.66;1040062;28;20033;-86
2021/01/13 00:32:14;;;;;;;8.68;7.78;;;;;;;-0.85;100.00;95790.22;1040831;28;20033;-88
2021/01/13 00:32:44;;;;;;;9.80;7.85;;;;;;;-0.89;100.00;95781.19;1044785;28;20031;-87
2021/01/13 00:33:14;;;;;;;8.90;6.72;;;;;;;-0.89;100.00;95789.00;1045169;28;20036;-87
2021/01/13 00:33:47;;;;;;;8.30;7.50;;;;;;;-0.91;100.00;95791.78;1046274;28;20024;-88
2021/01/13 00:34:18;;;;;;;8.68;7.55;;;;;;;-0.92;100.00;95794.59;1038399;28;20407;-87
2021/01/13 00:34:48;;;;;;;8.13;6.82;;;;;;;-0.89;100.00;95795.00;1037670;28;20036;-87
2021/01/13 00:35:19;;;;;;;10.35;7.82;;;;;;;-0.92;100.00;95784.19;1037833;28;20017;-86
2021/01/13 00:35:49;;;;;;;10.07;7.65;;;;;;;-0.94;100.00;95791.38;1037484;28;20025;-86
2021/01/13 00:36:23;;;;;;;9.52;7.07;;;;;;;-0.96;100.00;95795.91;1041791;28;20013;-87
2021/01/13 00:36:55;;;;;;;8.77;7.47;;;;;;;-0.96;100.00;95795.91;1041525;28;20564;-87
2021/01/13 00:37:26;;;;;;;8.45;7.22;;;;;;;-0.93;100.00;95791.16;1040654;28;20497;-87
2021/01/13 00:37:58;;;;;;;9.32;7.30;;;;;;;-0.95;100.00;95790.56;1040362;28;20014;-86
2021/01/13 00:38:29;;;;;;;8.45;6.47;;;;;;;-0.89;100.00;95796.81;1036274;28;20491;-86
2021/01/13 00:38:59;;;;;;;8.85;7.80;;;;;;;-0.91;100.00;95799.59;1032150;28;20022;-89
2021/01/13 00:39:30;;;;;;;8.48;6.97;;;;;;;-0.90;100.00;95805.59;1032180;28;20022;-88
2021/01/13 00:40:01;;;;;;;7.47;6.72;;;;;;;-0.89;100.00;95800.22;1032565;28;20018;-87
2021/01/13 00:40:37;;;;;;;9.25;7.30;;;;;;;-0.91;100.00;95796.19;1036606;28;20479;-90
2021/01/13 00:41:11;;;;;;;9.55;7.57;;;;;;;-0.91;100.00;95798.78;1040073;28;20493;-89
2021/01/13 00:41:47;;;;;;;8.15;6.80;;;;;;;-0.89;100.00;95802.81;1040065;28;20093;-90
2021/01/13 00:42:18;;;;;;;10.02;6.38;;;;;;;-0.90;100.00;95797.78;1036306;28;20417;-87
2021/01/13 00:42:49;;;;;;;8.23;5.90;;;;;;;-0.95;100.00;95798.38;1032008;28;20042;-90
2021/01/13 00:43:19;;;;;;;11.02;6.55;;;;;;;-0.93;100.00;95792.97;1028190;28;20007;-92
2021/01/13 00:43:53;;;;;;;7.35;6.65;;;;;;;-0.93;100.00;95787.78;1028457;28;20023;-89
2021/01/13 00:44:26;;;;;;;9.20;6.30;;;;;;;-0.87;100.00;95797.41;1033352;28;20014;-90
2021/01/13 00:45:00;;;;;;;6.82;6.13;;;;;;;-0.91;100.00;95791.00;1032027;28;20467;-90
2021/01/13 00:45:30;;;;;;;7.95;6.72;;;;;;;-0.88;100.00;95803.63;1032158;28;20518;-89
2021/01/13 00:46:00;;;;;;;8.13;6.68;;;;;;;-0.90;100.00;95797.78;1032012;28;20034;-87
2021/01/13 00:46:41;;;;;;;8.60;6.30;;;;;;;-0.88;100.00;95790.59;1032733;28;20042;-88
2021/01/13 00:47:15;;;;;;;8.00;6.32;;;;;;;-0.90;100.00;95792.59;1036116;28;20026;-87
2021/01/13 00:47:51;;;;;;;8.95;6.45;;;;;;;-0.94;100.00;95796.56;1036007;28;20571;-88
2021/01/13 00:48:21;;;;;;;8.30;5.95;;;;;;;-0.92;100.00;95797.19;1036144;28;20029;-87
2021/01/13 00:48:52;;;;;;;9.43;6.28;;;;;;;-0.96;100.00;95794.13;1036396;28;20085;-88
2021/01/13 00:49:22;;;;;;;7.15;6.45;;;;;;;-0.93;100.00;95798.19;1043648;28;20039;-88
2021/01/13 00:49:53;;;;;;;9.15;6.50;;;;;;;-0.90;100.00;95790.00;1044441;28;20032;-90
2021/01/13 00:50:23;;;;;;;9.23;6.90;;;;;;;-0.92;100.00;95791.97;1044697;28;20020;-88
2021/01/13 00:50:54;;;;;;;8.75;6.55;;;;;;;-0.94;100.00;95794.78;1044529;28;20059;-88
2021/01/13 00:51:32;;;;;;;8.73;6.88;;;;;;;-1.00;100.00;95790.28;1044726;28;20086;-88
2021/01/13 00:52:07;;;;;;;7.75;6.95;;;;;;;-0.96;100.00;95788.13;1040240;28;20025;-88
2021/01/13 00:52:38;;;;;;;9.75;6.75;;;;;;;-0.97;100.00;95794.31;1039949;28;20017;-88
2021/01/13 00:53:08;;;;;;;9.57;7.10;;;;;;;-0.95;100.00;95790.56;1040232;28;20029;-88
2021/01/13 00:53:42;;;;;;;9.73;6.32;;;;;;;-0.96;100.00;95793.31;1041036;28;20423;-89
2021/01/13 00:54:15;;;;;;;9.57;6.70;;;;;;;-0.95;100.00;95794.94;1044568;28;20024;-89
2021/01/13 00:54:45;;;;;;;9.75;6.55;;;;;;;-0.96;100.00;95801.13;1044576;28;20025;-87
2021/01/13 00:55:19;;;;;;;9.23;6.65;;;;;;;-0.94;100.00;95796.56;1044132;28;20029;-89
2021/01/13 00:55:52;;;;;;;8.00;6.75;;;;;;;-0.96;100.00;95804.53;1039238;28;20398;-89
2021/01/13 00:56:26;;;;;;;8.77;6.13;;;;;;;-0.95;100.00;95805.34;1040249;28;20025;-90
2021/01/13 00:56:56;;;;;;;8.50;6.35;;;;;;;-0.96;100.00;95793.31;1040125;28;20036;-87
2021/01/13 00:57:27;;;;;;;9.52;6.95;;;;;;;-0.97;100.00;95808.13;1041230;28;20056;-88
2021/01/13 00:57:57;;;;;;;9.60;7.78;;;;;;;-0.95;100.00;95800.13;1044113;28;20052;-89
2021/01/13 00:58:28;;;;;;;8.02;6.28;;;;;;;-0.95;100.00;95797.53;1044673;28;20330;-87
2021/01/13 00:58:58;;;;;;;11.32;6.85;;;;;;;-0.93;100.00;95801.59;1044789;28;20470;-88
2021/01/13 00:59:31;;;;;;;7.32;6.03;;;;;;;-0.94;100.00;95797.38;1044222;28;20398;-88
2021/01/13 01:00:03;;;;;;;8.10;5.97;;;;;;;-0.92;100.00;95799.78;1044280;28;20047;-87
2021/01/13 01:00:33;;;;;;;8.73;7.05;;;;;;;-0.96;100.00;95795.91;1040025;28;20025;-88
2021/01/13 01:01:04;;;;;;;9.82;6.82;;;;;;;-0.95;100.00;95807.94;1039063;28;20033;-87
2021/01/13 01:01:37;;;;;;;7.10;5.78;;;;;;;-0.94;100.00;95807.78;1040192;28;20029;-87
2021/01/13 01:02:09;;;;;;;8.07;6.13;;;;;;;-0.94;100.00;95801.78;1041652;28;20215;-89
2021/01/13 01:02:45;;;;;;;7.90;5.70;;;;;;;-0.95;100.00;95802.72;1045951;28;20098;-90
2021/01/13 01:03:17;;;;;;;9.57;7.00;;;;;;;-0.95;100.00;95807.94;1040225;28;20028;-88
2021/01/13 01:03:47;;;;;;;9.23;6.13;;;;;;;-0.97;100.00;95813.31;1040088;28;20439;-88
2021/01/13 01:04:18;;;;;;;8.52;6.18;;;;;;;-0.97;100.00;95815.94;1037279;28;20041;-87
2021/01/13 01:04:48;;;;;;;7.63;6.22;;;;;;;-0.98;100.00;95811.72;1036592;28;20068;-89
2021/01/13 01:05:19;;;;;;;8.32;5.95;;;;;;;-1.01;100.00;95809.50;1040369;28;20037;-89
2021/01/13 01:05:51;;;;;;;9.48;5.95;;;;;;;-0.99;100.00;95819.72;1040326;28;20174;-88
2021/01/13 01:06:21;;;;;;;9.52;5.28;;;;;;;-0.97;99.98;95817.72;1035984;28;20026;-86
2021/01/13 01:06:52;;;;;;;10.48;6.40;;;;;;;-0.98;100.00;95816.13;1035610;28;20471;-86
2021/01/13 01:07:22;;;;;;;7.97;6.53;;;;;;;-0.94;99.79;95817.38;1035944;28;20471;-86
2021/01/13 01:07:55;;;;;;;10.27;6.30;;;;;;;-0.97;100.00;95813.31;1031722;28;20044;-87
2021/01/13 01:08:25;;;;;;;7.50;5.63;;;;;;;-1.00;100.00;95811.09;1031914;28;20133;-87
2021/01/13 01:08:56;;;;;;;9.45;6.22;;;;;;;-0.98;100.00;95818.72;1031883;28;20472;-87
2021/01/13 01:09:26;;;;;;;8.15;6.32;;;;;;;-1.00;100.00;95824.09;1028295;28;20026;-88
2021/01/13 01:09:57;;;;;;;8.70;5.82;;;;;;;-1.00;100.00;95818.09;1031911;28;20030;-88
2021/01/13 01:10:31;;;;;;;8.13;5.85;;;;;;;-0.96;100.00;95824.53;1031833;28;20022;-88
2021/01/13 01:11:01;;;;;;;8.82;6.53;;;;;;;-0.94;100.00;95823.38;1028894;28;20015;-89
2021/01/13 01:11:34;;;;;;;8.07;6.30;;;;;;;-0.93;100.00;95825.00;1028004;28;20019;-88
2021/01/13 01:12:07;;;;;;;8.63;6.43;;;;;;;-0.97;100.00;95831.53;1028798;28;20468;-88
2021/01/13 01:12:38;;;;;;;7.18;6.35;;;;;;;-0.94;100.00;95831.19;1033501;28;20023;-89
2021/01/13 01:13:08;;;;;;;7.80;6.30;;;;;;;-0.97;100.00;95828.13;1036810;28;20025;-88
2021/01/13 01:13:38;;;;;;;6.88;5.95;;;;;;;-0.96;100.00;95829.75;1040378;28;20032;-89
2021/01/13 01:14:10;;;;;;;6.97;6.05;;;;;;;-0.96;100.00;95830.53;1035864;28;20022;-88
2021/01/13 01:14:40;;;;;;;9.98;6.65;;;;;;;-0.94;100.00;95830.38;1035931;28;20041;-87
2021/01/13 01:15:11;;;;;;;10.38;6.47;;;;;;;-0.92;100.00;95829.22;1036013;28;20483;-87
2021/01/13 01:15:42;;;;;;;7.70;6.38;;;;;;;-0.97;100.00;95828.13;1036543;28;20515;-89
2021/01/13 01:16:13;;;;;;;8.73;6.70;;;;;;;-0.95;100.00;95831.34;1040373;28;20029;-88
2021/01/13 01:16:44;;;;;;;9.25;6.30;;;;;;;-0.97;99.82;95830.72;1040605;28;20072;-87
2021/01/13 01:17:15;;;;;;;11.18;6.30;;;;;;;-0.95;100.00;95839.16;1040518;28;20021;-88
2021/01/13 01:17:45;;;;;;;7.43;6.25;;;;;;;-0.99;100.00;95832.72;1040410;28;20040;-88
2021/01/13 01:18:15;;;;;;;12.48;6.78;;;;;;;-0.99;100.00;95832.72;1040374;28;20029;-88
2021/01/13 01:18:46;;;;;;;10.05;6.50;;;;;;;-0.97;100.00;95839.34;1040357;28;20028;-88
2021/01/13 01:19:16;;;;;;;8.38;6.47;;;;;;;-0.95;100.00;95831.34;1040214;28;20040;-88
2021/01/13 01:19:47;;;;;;;9.60;6.35;;;;;;;-1.01;100.00;95838.09;1040087;28;20449;-88
2021/01/13 01:20:18;;;;;;;9.32;7.40;;;;;;;-1.01;100.00;95838.09;1040407;28;20013;-88
2021/01/13 01:20:48;;;;;;;7.10;6.40;;;;;;;-1.00;100.00;95838.91;1036072;28;20112;-88
2021/01/13 01:21:19;;;;;;;10.63;6.55;;;;;;;-1.01;100.00;95837.31;1036079;28;20021;-89
2021/01/13 01:21:49;;;;;;;10.50;6.55;;;;;;;-1.00;100.00;95844.13;1035895;28;20096;-88
2021/01/13 01:22:19;;;;;;;10.05;6.80;;;;;;;-1.03;100.00;95834.88;1036098;28;20022;-87
2021/01/13 01:22:57;;;;;;;8.15;6.22;;;;;;;-1.00;100.00;95846.72;1035779;28;20063;-88
2021/01/13 01:23:28;;;;;;;7.28;6.13;;;;;;;-1.08;100.00;95841.59;1035904;28;20061;-88
2021/01/13 01:23:58;;;;;;;7.97;6.72;;;;;;;-1.09;100.00;95835.59;1035879;28;20022;-88
2021/01/13 01:24:28;;;;;;;10.10;6.65;;;;;;;-1.07;100.00;95838.81;1037182;28;20096;-88
2021/01/13 01:24:59;;;;;;;9.70;6.70;;;;;;;-1.10;100.00;95831.38;1036014;28;20014;-88
2021/01/13 01:25:30;;;;;;;12.05;7.13;;;;;;;-1.06;100.00;95835.25;1035961;28;20026;-88
2021/01/13 01:26:01;;;;;;;7.82;6.43;;;;;;;-1.05;100.00;95830.88;1035856;28;20032;-88
2021/01/13 01:26:31;;;;;;;9.48;6.32;;;;;;;-1.05;100.00;95836.88;1036252;28;20030;-89
2021/01/13 01:27:02;;;;;;;8.25;6.80;;;;;;;-1.05;100.00;95838.66;1036036;28;20026;-89
2021/01/13 01:27:32;;;;;;;9.27;7.18;;;;;;;-1.06;100.00;95837.06;1035887;28;20018;-88
2021/01/13 01:28:03;;;;;;;9.77;6.97;;;;;;;-1.07;100.00;95838.00;1035974;28;20030;-88
2021/01/13 01:28:33;;;;;;;8.38;6.35;;;;;;;-1.08;100.00;95841.59;1036024;28;20022;-89
2021/01/13 01:29:05;;;;;;;8.75;6.65;;;;;;;-1.05;100.00;95836.88;1040645;28;20025;-87
2021/01/13 01:29:36;;;;;;;10.02;6.68;;;;;;;-1.05;100.00;95830.88;1040654;28;20028;-87
2021/01/13 01:30:07;;;;;;;9.38;6.47;;;;;;;-1.10;100.00;95838.38;1040596;28;20060;-87
2021/01/13 01:30:37;;;;;;;9.05;6.97;;;;;;;-1.09;100.00;95840.00;1040335;28;20440;-87
2021/01/13 01:31:07;;;;;;;9.35;6.85;;;;;;;-1.09;100.00;95835.59;1040521;28;20025;-87
2021/01/13 01:31:38;;;;;;;11.85;7.45;;;;;;;-1.10;100.00;95838.38;1040055;28;20387;-87
2021/01/13 01:32:08;;;;;;;10.63;7.55;;;;;;;-1.11;100.00;95839.38;1040342;28;20012;-88
2021/01/13 01:32:39;;;;;;;9.70;7.15;;;;;;;-1.14;100.00;95840.56;1040339;28;20498;-87
2021/01/13 01:33:09;;;;;;;8.57;6.88;;;;;;;-1.11;100.00;95841.97;1036057;28;20013;-87
2021/01/13 01:33:39;;;;;;;8.85;6.75;;;;;;;-1.16;100.00;95834.72;1032031;28;20026;-87
2021/01/13 01:34:10;;;;;;;11.23;6.60;;;;;;;-1.14;100.00;95848.34;1032912;28;20018;-87
2021/01/13 01:34:41;;;;;;;9.05;6.90;;;;;;;-1.13;100.00;95844.75;1034565;28;20023;-89
2021/01/13 01:35:15;;;;;;;9.25;7.18;;;;;;;-1.19;100.00;95851.50;1036196;28;20022;-87
2021/01/13 01:35:46;;;;;;;10.32;7.15;;;;;;;-1.14;100.00;95847.56;1039560;28;20053;-87
2021/01/13 01:36:16;;;;;;;10.65;7.10;;;;;;;-1.14;100.00;95845.75;1040394;28;20022;-87
2021/01/13 01:36:47;;;;;;;9.27;7.50;;;;;;;-1.11;100.00;95841.97;1040011;28;20077;-88
2021/01/13 01:37:17;;;;;;;8.77;7.22;;;;;;;-1.12;100.00;95848.97;1036977;28;20018;-88
2021/01/13 01:37:47;;;;;;;9.57;6.72;;;;;;;-1.10;100.00;95838.38;1040859;28;20025;-87
2021/01/13 01:38:19;;;;;;;9.77;7.30;;;;;;;-1.11;100.00;95847.19;1040615;28;20016;-87
2021/01/13 01:38:51;;;;;;;8.75;7.13;;;;;;;-1.15;100.00;95845.94;1036777;28;20034;-88
2021/01/13 01:39:22;;;;;;;11.70;7.38;;;;;;;-1.14;100.00;95843.16;1040942;28;20006;-88
2021/01/13 01:39:52;;;;;;;12.18;7.35;;;;;;;-1.14;100.00;95847.56;1040804;28;19998;-87
2021/01/13 01:40:22;;;;;;;7.40;6.43;;;;;;;-1.14;100.00;95850.97;1040879;28;20017;-85
2021/01/13 01:40:53;;;;;;;9.82;7.00;;;;;;;-1.12;100.00;95846.38;1040907;28;20446;-86
2021/01/13 01:41:23;;;;;;;10.00;7.15;;;;;;;-1.10;100.00;95854.00;1041314;28;20045;-86
2021/01/13 01:41:54;;;;;;;9.23;7.05;;;;;;;-1.10;100.00;95843.59;1041186;28;20022;-85
2021/01/13 01:42:24;;;;;;;9.23;7.13;;;;;;;-1.06;100.00;95857.88;1040835;28;20030;-86
2021/01/13 01:42:56;;;;;;;9.15;7.15;;;;;;;-1.09;100.00;95850.41;1045182;28;20036;-86
2021/01/13 01:43:26;;;;;;;9.95;7.95;;;;;;;-1.08;100.00;95854.63;1045559;28;20032;-87
2021/01/13 01:43:57;;;;;;;11.23;7.68;;;;;;;-1.07;100.00;95859.63;1043163;28;20465;-86
2021/01/13 01:44:27;;;;;;;9.50;7.03;;;;;;;-1.09;100.00;95860.81;1037677;28;20021;-87
2021/01/13 01:44:57;;;;;;;13.57;7.78;;;;;;;-1.09;100.00;95855.59;1033511;28;20029;-86
2021/01/13 01:45:29;;;;;;;9.65;7.50;;;;;;;-1.15;100.00;95862.34;1028893;28;20010;-86
2021/01/13 01:45:59;;;;;;;11.38;7.72;;;;;;;-1.14;100.00;95868.34;1032801;28;20017;-87
2021/01/13 01:46:30;;;;;;;10.85;8.05;;;;;;;-1.16;100.00;95862.53;1033185;28;20073;-87
2021/01/13 01:47:04;;;;;;;9.68;7.18;;;;;;;-1.13;100.00;95862.16;1036917;28;20049;-88
2021/01/13 01:47:53;;;;;;;11.88;7.55;;;;;;;-1.16;100.00;95863.34;1041070;28;20093;-88
2021/01/13 01:48:27;;;;;;;13.80;8.25;;;;;;;-1.14;100.00;95868.34;1033015;28;20026;-87
2021/01/13 01:49:00;;;;;;;8.73;7.38;;;;;;;-1.15;100.00;95866.75;1032741;28;20022;-87
2021/01/13 01:49:30;;;;;;;12.38;7.60;;;;;;;-1.17;100.00;95863.53;1035942;28;20014;-88
2021/01/13 01:50:01;;;;;;;11.00;8.43;;;;;;;-1.19;100.00;95864.50;1038398;28;20026;-87
2021/01/13 01:50:32;;;;;;;10.18;7.85;;;;;;;-1.24;100.00;95864.25;1044827;28;20545;-88
2021/01/13 01:51:03;;;;;;;10.98;8.02;;;;;;;-1.27;100.00;95863.81;1036863;28;20026;-88
2021/01/13 01:51:59;;;;;;;9.98;7.75;;;;;;;-1.24;100.00;95863.44;1036780;28;20204;-89
2021/01/13 01:52:31;;;;;;;10.13;7.95;;;;;;;-1.25;100.00;95870.44;1037127;28;20065;-89
2021/01/13 01:53:14;;;;;;;11.55;7.80;;;;;;;-1.23;100.00;95868.44;1036680;28;20018;-88
2021/01/13 01:53:51;;;;;;;11.30;7.65;;;;;;;-1.22;100.00;95867.47;1036824;28;20041;-88
2021/01/13 01:54:24;;;;;;;11.07;7.80;;;;;;;-1.19;100.00;95869.69;1032942;28;20030;-90
2021/01/13 01:54:55;;;;;;;11.63;8.05;;;;;;;-1.15;100.00;95869.34;1036161;28;20125;-90
2021/01/13 01:55:25;;;;;;;11.23;8.23;;;;;;;-1.13;100.00;95867.38;1037050;28;20084;-89
2021/01/13 01:56:25;;;;;;;10.85;8.00;;;;;;;-1.19;100.00;95864.50;1029351;28;20034;-90
2021/01/13 01:56:56;;;;;;;10.52;7.78;;;;;;;-1.20;100.00;95867.28;1030025;28;20585;-90
2021/01/13 01:57:27;;;;;;;14.00;8.20;;;;;;;-1.21;100.00;95861.28;1028944;28;20050;-90
2021/01/13 01:57:58;;;;;;;11.32;8.50;;;;;;;-1.21;100.00;95863.06;1029033;28;20054;-90
2021/01/13 01:58:29;;;;;;;13.25;8.60;;;;;;;-1.15;100.00;95861.53;1029019;28;20169;-89
2021/01/13 01:59:19;;;;;;;10.95;8.43;;;;;;;-1.12;100.00;95876.78;1025317;28;20021;-90
2021/01/13 01:59:51;;;;;;;11.95;8.07;;;;;;;-1.14;100.00;95868.34;1034795;28;20037;-90
2021/01/13 02:00:30;;;;;;;12.48;8.70;;;;;;;-1.17;100.00;95866.94;1033143;28;20061;-89
2021/01/13 02:01:01;;;;;;;10.90;7.93;;;;;;;-1.12;100.00;95877.59;1025612;29;20102;-89
2021/01/13 02:01:38;;;;;;;10.02;7.95;;;;;;;-1.11;100.00;95868.00;1028416;28;20035;-90
2021/01/13 02:02:09;;;;;;;10.25;7.22;;;;;;;-1.08;100.00;95872.81;1033240;28;20045;-90
2021/01/13 02:02:39;;;;;;;10.95;8.35;;;;;;;-1.11;100.00;95870.59;1038292;28;20270;-88
2021/01/13 02:03:13;;;;;;;14.93;8.70;;;;;;;-1.11;100.00;95873.19;1041770;28;20092;-89
2021/01/13 02:03:44;;;;;;;12.43;9.13;;;;;;;-1.13;100.00;95875.97;1041713;28;20104;-89
2021/01/13 02:04:16;;;;;;;11.55;8.48;;;;;;;-1.21;100.00;95865.66;1041794;28;20381;-89
2021/01/13 02:04:47;;;;;;;11.73;8.23;;;;;;;-1.14;100.00;95876.16;1033058;28;20034;-88
2021/01/13 02:05:17;;;;;;;10.65;8.32;;;;;;;-1.15;100.00;95869.34;1025388;28;20027;-89
2021/01/13 02:05:48;;;;;;;13.00;9.10;;;;;;;-1.11;100.00;95862.78;1025203;29;20027;-89
2021/01/13 02:06:18;;;;;;;11.60;8.27;;;;;;;-1.12;100.00;95867.19;1023136;29;20031;-88
2021/01/13 02:06:51;;;;;;;13.02;8.57;;;;;;;-1.08;100.00;95873.63;1029943;28;20043;-88
2021/01/13 02:07:24;;;;;;;10.77;8.48;;;;;;;-1.07;100.00;95870.03;1033525;28;20038;-84
2021/01/13 02:07:55;;;;;;;13.15;9.90;;;;;;;-1.05;100.00;95877.69;1033203;28;20045;-85
2021/01/13 02:08:25;;;;;;;12.73;8.65;;;;;;;-1.06;100.00;95876.06;1028616;28;20058;-85
2021/01/13 02:08:56;;;;;;;11.63;8.48;;;;;;;-1.10;100.00;95874.81;1028971;28;20042;-86
2021/01/13 02:09:29;;;;;;;9.70;8.27;;;;;;;-1.07;100.00;95875.22;1032924;28;20026;-86
2021/01/13 02:10:02;;;;;;;12.15;8.98;;;;;;;-1.04;100.00;95874.09;1033670;28;20026;-87
2021/01/13 02:10:34;;;;;;;11.45;9.85;;;;;;;-1.03;100.00;95878.31;1041325;28;20027;-86
2021/01/13 02:11:10;;;;;;;12.10;8.85;;;;;;;-1.06;100.00;95876.06;1041201;28;20021;-86
2021/01/13 02:11:44;;;;;;;11.93;8.32;;;;;;;-1.05;100.00;95877.69;1036684;28;20105;-86
2021/01/13 02:12:14;;;;;;;12.85;8.95;;;;;;;-1.04;100.00;95874.91;1032359;28;20033;-86
2021/01/13 02:12:50;;;;;;;11.45;7.85;;;;;;;-1.00;100.00;95881.34;1024547;29;20034;-86
2021/01/13 02:13:21;;;;;;;12.57;8.40;;;;;;;-0.96;100.00;95874.78;1021942;29;20027;-87
2021/01/13 02:13:51;;;;;;;15.30;9.48;;;;;;;-0.96;100.00;95873.97;1021301;29;20016;-85
2021/01/13 02:14:22;;;;;;;13.45;8.85;;;;;;;-1.01;100.00;95887.53;1026179;28;20041;-85
2021/01/13 02:14:53;;;;;;;11.85;8.13;;;;;;;-0.99;100.00;95884.75;1032896;28;20030;-85
2021/01/13 02:15:23;;;;;;;14.10;8.95;;;;;;;-1.03;100.00;95884.31;1036861;28;20025;-86
2021/01/13 02:15:54;;;;;;;11.55;8.88;;;;;;;-1.02;100.00;95885.13;1041041;28;20025;-85
2021/01/13 02:16:25;;;;;;;12.38;8.32;;;;;;;-1.01;100.00;95878.91;1040945;28;20463;-85
2021/01/13 02:16:56;;;;;;;12.93;9.23;;;;;;;-1.05;100.00;95881.09;1040880;28;20018;-84
2021/01/13 02:17:36;;;;;;;12.32;8.52;;;;;;;-1.09;100.00;95882.41;1042459;28;20017;-85
2021/01/13 02:18:08;;;;;;;;;;;;;;;-1.07;100.00;95877.03;1038438;28;20021;-86
2021/01/13 02:18:40;;;;;;;12.35;8.00;;;;;;;-1.03;100.00;95880.91;1038343;28;19912;-86
2021/01/13 02:19:13;;;;;;;10.88;8.38;;;;;;;-1.03;100.00;95880.91;1038282;28;20076;-87
2021/01/13 02:19:46;;;;;;;11.85;8.63;;;;;;;-1.02;100.00;95880.72;1031552;28;20026;-88
2021/01/13 02:20:17;;;;;;;14.02;8.60;;;;;;;-1.04;100.00;95885.31;1033635;28;20050;-89
2021/01/13 02:20:52;;;;;;;12.95;8.70;;;;;;;-1.07;100.00;95879.63;1033164;28;20526;-89
2021/01/13 02:21:22;;;;;;;11.02;8.38;;;;;;;-1.10;100.00;95877.41;1035134;28;20383;-87
2021/01/13 02:21:53;;;;;;;10.90;8.85;;;;;;;-1.04;100.00;95877.50;1040573;28;20032;-87
2021/01/13 02:22:26;;;;;;;13.07;8.30;;;;;;;-1.01;100.00;95871.13;1040560;28;20032;-87
2021/01/13 02:23:01;;;;;;;10.07;8.95;;;;;;;-1.00;100.00;95870.13;1040931;28;20021;-89
2021/01/13 02:23:33;;;;;;;11.00;8.98;;;;;;;-1.01;100.00;95871.91;1040994;28;20108;-88
2021/01/13 02:24:07;;;;;;;11.95;9.30;;;;;;;-1.00;100.00;95880.53;1039270;28;20022;-87
2021/01/13 02:24:56;;;;;;;12.23;8.63;;;;;;;-1.01;100.00;95882.31;1036395;28;20034;-87
2021/01/13 02:25:45;;;;;;;11.30;8.88;;;;;;;-1.02;100.00;95885.91;1036652;28;20026;-87
2021/01/13 02:26:52;;;;;;;10.35;7.68;;;;;;;-1.05;100.00;95888.91;1035114;28;20034;-86
2021/01/13 02:27:46;;;;;;;11.82;8.27;;;;;;;-1.01;100.00;95892.72;1040587;28;20545;-84
2021/01/13 02:28:20;;;;;;;14.05;8.80;;;;;;;-1.04;99.91;95881.91;1040567;28;20382;-84
2021/01/13 02:28:57;;;;;;;14.55;8.20;;;;;;;-1.02;100.00;95892.91;1032262;28;20022;-89
2021/01/13 02:29:37;;;;;;;11.90;7.95;;;;;;;-1.00;100.00;95885.72;1032537;28;20022;-88